This is the latest recevied weather packets stored in our database for station/object W0WC. If no packets are shown the sender has not sent any weather packets the latest 10 day(s).
| Time | Temp. | Humidity | Pressure | Rain* | Wind** | Luminosity | Snow |
|---|---|---|---|---|---|---|---|
| 1778102367 | 16.67° C | 42% | 1016.8 hPa | 0 mm | - | 449 W/m² | - |
| 1778102064 | 16.67° C | 42% | 1016.9 hPa | 0 mm | - | 206 W/m² | - |
| 1778101761 | 16.11° C | 44% | 1016.8 hPa | 0 mm | - | 624 W/m² | - |
| 1778101457 | 16.67° C | 42% | 1016.9 hPa | 0 mm | - | 173 W/m² | - |
| 1778101155 | 16.67° C | 43% | 1017 hPa | 0 mm | - | 226 W/m² | - |
| 1778100850 | 16.67° C | 46% | 1016.9 hPa | 0 mm | - | 742 W/m² | - |
| 1778100547 | 16.67° C | 46% | 1017 hPa | 0 mm | - | 656 W/m² | - |
| 1778100245 | 16.67° C | 44% | 1017 hPa | 0 mm | - | 644 W/m² | - |
| 1778099942 | 16.67° C | 43% | 1017.2 hPa | 0 mm | - | 680 W/m² | - |
| 1778099639 | 16.11° C | 44% | 1017.1 hPa | 0 mm | - | 674 W/m² | - |
| 1778099336 | 16.11° C | 41% | 1017.4 hPa | 0 mm | - | 672 W/m² | - |
| 1778099033 | 16.67° C | 40% | 1017.4 hPa | 0 mm | - | 690 W/m² | - |
| 1778098730 | 16.67° C | 43% | 1017.4 hPa | 0 mm | - | 694 W/m² | - |
| 1778098427 | 16.11° C | 43% | 1017.4 hPa | 0 mm | - | 602 W/m² | - |
| 1778098124 | 16.11° C | 44% | 1017.4 hPa | 0 mm | - | 710 W/m² | - |
| 1778097820 | 16.11° C | 42% | 1017.5 hPa | 0 mm | - | 732 W/m² | - |
| 1778097516 | 16.11° C | 44% | 1017.3 hPa | 0 mm | - | 275 W/m² | - |
| 1778097213 | 16.11° C | 44% | 1017.3 hPa | 0 mm | - | 740 W/m² | - |
| 1778096910 | 16.11° C | 42% | 1017.5 hPa | 0 mm | - | 760 W/m² | - |
| 1778096607 | 16.11° C | 45% | 1017.6 hPa | 0 mm | - | 769 W/m² | - |
| 1778096304 | 16.11° C | 44% | 1017.6 hPa | 0 mm | - | 763 W/m² | - |
| 1778096001 | 16.11° C | 44% | 1017.9 hPa | 0 mm | - | 785 W/m² | - |
| 1778095697 | 16.11° C | 45% | 1018 hPa | 0 mm | - | 796 W/m² | - |
| 1778095394 | 16.11° C | 43% | 1018.1 hPa | 0 mm | - | 794 W/m² | - |
| 1778095091 | 15.56° C | 45% | 1018.1 hPa | 0 mm | - | 796 W/m² | - |
* Rain latest hour (hover to see other rain measurements)
** Current wind speed in m/s (hover to see current wind gust speed)